createdAt,value
2023-05-22T00:01:46.574Z,14.34
2023-05-22T00:04:23.998Z,14.30
2023-05-22T00:06:58.001Z,14.26
2023-05-22T00:09:27.993Z,14.21
2023-05-22T00:12:07.415Z,14.20
2023-05-22T00:14:45.261Z,14.16
2023-05-22T00:17:23.969Z,14.12
2023-05-22T00:20:11.764Z,14.04
2023-05-22T00:22:50.202Z,14.05
2023-05-22T00:25:28.916Z,14.01
2023-05-22T00:28:07.536Z,13.98
2023-05-22T00:30:38.491Z,13.95
2023-05-22T00:33:17.219Z,13.92
2023-05-22T00:35:55.349Z,13.87
2023-05-22T00:38:40.099Z,13.84
2023-05-22T00:41:12.517Z,13.81
2023-05-22T00:43:45.823Z,13.77
2023-05-22T00:46:21.889Z,13.73
2023-05-22T00:48:59.210Z,13.72
2023-05-22T00:51:36.672Z,13.73
2023-05-22T00:54:14.986Z,13.75
2023-05-22T00:56:46.854Z,13.78
2023-05-22T00:59:18.012Z,13.82
2023-05-22T01:01:56.358Z,13.86
2023-05-22T01:04:35.549Z,13.87
2023-05-22T01:07:13.423Z,13.86
2023-05-22T01:09:54.829Z,13.81
2023-05-22T01:12:49.242Z,13.78
2023-05-22T01:15:45.388Z,13.75
2023-05-22T01:18:42.379Z,13.71
2023-05-22T01:22:01.547Z,13.64
2023-05-22T01:25:30.510Z,13.58
2023-05-22T01:28:59.171Z,13.53
2023-05-22T01:31:45.511Z,13.47
2023-05-22T01:34:21.961Z,13.43
2023-05-22T01:36:59.767Z,13.38
2023-05-22T01:39:38.768Z,13.33
2023-05-22T01:42:17.704Z,13.29
2023-05-22T01:44:59.383Z,13.27
2023-05-22T01:47:38.021Z,13.23
2023-05-22T01:50:17.366Z,13.22
2023-05-22T01:53:40.013Z,13.22
2023-05-22T01:56:34.380Z,13.21
2023-05-22T01:59:34.531Z,13.23
2023-05-22T02:02:12.797Z,13.24
2023-05-22T02:05:00.598Z,13.24
2023-05-22T02:07:40.861Z,13.22
2023-05-22T02:10:20.387Z,13.21
2023-05-22T02:12:58.762Z,13.17
2023-05-22T02:15:37.406Z,13.12
2023-05-22T02:18:17.901Z,13.07
2023-05-22T02:20:56.310Z,13.04
2023-05-22T02:23:31.838Z,13.01
2023-05-22T02:26:10.056Z,12.98
2023-05-22T02:28:47.504Z,12.96
2023-05-22T02:31:21.956Z,12.89
2023-05-22T02:33:59.905Z,12.83
2023-05-22T02:36:38.035Z,12.79
2023-05-22T02:39:15.644Z,12.75
2023-05-22T02:41:53.407Z,12.78
2023-05-22T02:44:23.510Z,12.77
2023-05-22T02:47:01.358Z,12.78
2023-05-22T02:49:40.006Z,12.78
2023-05-22T02:52:19.492Z,12.78
2023-05-22T02:54:56.686Z,12.74
2023-05-22T02:57:34.207Z,12.69
2023-05-22T03:00:13.469Z,12.66
2023-05-22T03:02:52.178Z,12.64
2023-05-22T03:05:29.963Z,12.61
2023-05-22T03:08:09.227Z,12.64
2023-05-22T03:10:46.958Z,12.69
2023-05-22T03:13:17.322Z,12.74
2023-05-22T03:15:55.788Z,12.79
2023-05-22T03:18:28.311Z,12.83
2023-05-22T03:21:03.388Z,12.77
2023-05-22T03:23:34.421Z,12.71
2023-05-22T03:26:13.465Z,12.66
2023-05-22T03:28:51.018Z,12.66
2023-05-22T03:31:34.932Z,12.64
2023-05-22T03:34:13.149Z,12.65
2023-05-22T03:36:51.630Z,12.69
2023-05-22T03:39:30.039Z,12.78
2023-05-22T03:42:09.284Z,12.87
2023-05-22T03:44:47.471Z,12.88
2023-05-22T03:47:25.709Z,12.75
2023-05-22T03:50:03.467Z,12.86
2023-05-22T03:52:41.821Z,13.04
2023-05-22T03:55:19.255Z,13.13
2023-05-22T03:57:58.138Z,13.09
2023-05-22T04:00:28.199Z,13.07
2023-05-22T04:02:59.107Z,13.11
2023-05-22T04:05:37.526Z,13.18
2023-05-22T04:08:15.489Z,13.26
2023-05-22T04:10:54.684Z,13.32
2023-05-22T04:13:33.541Z,13.20
2023-05-22T04:16:04.656Z,13.21
2023-05-22T04:18:43.853Z,13.22
2023-05-22T04:21:24.016Z,13.41
2023-05-22T04:24:07.559Z,13.60
2023-05-22T04:26:46.147Z,13.76
2023-05-22T04:29:25.184Z,13.88
2023-05-22T04:32:03.422Z,14.01
2023-05-22T04:34:42.555Z,14.25
2023-05-22T04:37:21.000Z,14.45
2023-05-22T04:40:07.371Z,14.76
2023-05-22T04:42:46.479Z,15.01
2023-05-22T04:45:25.785Z,15.27
2023-05-22T04:48:04.295Z,15.58
2023-05-22T04:50:42.626Z,15.86
2023-05-22T04:53:21.490Z,16.22
2023-05-22T04:56:04.907Z,16.72
2023-05-22T04:58:42.939Z,17.87
2023-05-22T05:01:23.269Z,19.24
2023-05-22T05:03:59.178Z,20.50
2023-05-22T05:06:32.855Z,20.99
2023-05-22T05:09:07.419Z,21.35
2023-05-22T05:11:45.758Z,21.81
2023-05-22T05:14:24.275Z,22.96
2023-05-22T05:17:02.908Z,23.88
2023-05-22T05:19:42.121Z,24.37
2023-05-22T05:22:18.068Z,24.89
2023-05-22T05:24:56.805Z,25.15
2023-05-22T05:27:35.066Z,25.67
2023-05-22T05:30:14.593Z,25.28
2023-05-22T05:32:52.830Z,25.57
2023-05-22T05:35:30.892Z,26.07
2023-05-22T05:38:09.197Z,26.30
2023-05-22T05:40:47.771Z,26.95
2023-05-22T05:43:25.834Z,26.97
2023-05-22T05:46:04.249Z,26.71
2023-05-22T05:48:42.330Z,27.21
2023-05-22T05:51:21.631Z,27.64
2023-05-22T05:53:56.962Z,27.63
2023-05-22T05:56:28.852Z,26.84
2023-05-22T05:59:07.196Z,26.69
2023-05-22T06:01:48.307Z,25.73
2023-05-22T06:04:24.767Z,24.71
2023-05-22T06:07:04.262Z,23.92
2023-05-22T06:09:42.788Z,23.46
2023-05-22T06:12:21.673Z,23.18
2023-05-22T06:15:00.007Z,23.08
2023-05-22T06:17:37.949Z,23.23
2023-05-22T06:20:16.042Z,23.83
2023-05-22T06:22:53.774Z,24.64
2023-05-22T06:25:32.446Z,25.05
2023-05-22T06:28:07.057Z,24.87
2023-05-22T06:30:46.249Z,25.48
2023-05-22T06:33:24.878Z,26.19
2023-05-22T06:36:04.164Z,26.24
2023-05-22T06:38:41.867Z,26.00
2023-05-22T06:41:12.381Z,26.16
2023-05-22T06:43:49.381Z,26.23
2023-05-22T06:46:26.781Z,26.14
2023-05-22T06:49:06.542Z,25.63
2023-05-22T06:51:44.141Z,26.03
2023-05-22T06:54:21.964Z,26.49
2023-05-22T06:56:59.779Z,26.41
2023-05-22T06:59:37.448Z,26.60
2023-05-22T07:02:16.037Z,27.44
2023-05-22T07:04:54.402Z,27.67
2023-05-22T07:07:32.235Z,28.03
2023-05-22T07:10:06.857Z,28.12
2023-05-22T07:12:38.133Z,28.22
2023-05-22T07:15:12.580Z,28.24
2023-05-22T07:17:50.232Z,28.08
2023-05-22T07:20:28.746Z,28.35
2023-05-22T07:23:04.953Z,27.73
2023-05-22T07:25:43.677Z,27.93
2023-05-22T07:28:21.894Z,27.73
2023-05-22T07:30:59.103Z,27.63
2023-05-22T07:33:37.392Z,28.03
2023-05-22T07:36:16.054Z,27.95
2023-05-22T07:38:54.915Z,27.80
2023-05-22T07:41:33.601Z,27.65
2023-05-22T07:44:11.679Z,27.88
2023-05-22T07:46:49.331Z,28.10
2023-05-22T07:49:28.339Z,28.38
2023-05-22T07:52:01.407Z,28.48
2023-05-22T07:54:32.347Z,28.15
2023-05-22T07:57:12.898Z,28.04
2023-05-22T07:59:51.155Z,28.16
2023-05-22T08:02:28.589Z,28.25
2023-05-22T08:05:07.733Z,28.56
2023-05-22T08:07:46.390Z,28.38
2023-05-22T08:10:19.227Z,28.28
2023-05-22T08:12:58.936Z,28.22
2023-05-22T08:15:38.947Z,27.73
2023-05-22T08:18:17.807Z,27.54
2023-05-22T08:20:58.625Z,28.07
2023-05-22T08:23:38.927Z,28.48
2023-05-22T08:26:16.750Z,28.70
2023-05-22T08:28:54.207Z,28.84
2023-05-22T08:31:34.794Z,28.68
2023-05-22T08:34:12.537Z,28.33
2023-05-22T08:36:51.037Z,27.93
2023-05-22T08:39:29.430Z,27.73
2023-05-22T08:42:08.731Z,26.98
2023-05-22T08:44:47.869Z,26.38
2023-05-22T08:47:24.409Z,26.45
2023-05-22T08:50:00.803Z,26.37
2023-05-22T08:52:53.501Z,26.30
2023-05-22T08:55:31.979Z,26.91
2023-05-22T08:58:12.130Z,27.29
2023-05-22T09:00:50.612Z,27.39
2023-05-22T09:03:38.238Z,26.90
2023-05-22T09:06:18.066Z,26.79
2023-05-22T09:09:02.270Z,26.66
2023-05-22T09:11:40.633Z,26.45
2023-05-22T09:14:18.969Z,26.24
2023-05-22T09:16:57.672Z,25.83
2023-05-22T09:19:36.780Z,25.49
2023-05-22T09:22:14.954Z,25.47
2023-05-22T09:24:53.209Z,25.52
2023-05-22T09:27:32.810Z,25.15
2023-05-22T09:30:12.591Z,24.70
2023-05-22T09:32:54.106Z,24.65
2023-05-22T09:35:34.994Z,24.66
2023-05-22T09:38:16.167Z,24.71
2023-05-22T09:40:58.872Z,24.78
2023-05-22T09:43:38.259Z,24.74
2023-05-22T09:46:20.624Z,24.70
2023-05-22T09:49:04.104Z,24.66
2023-05-22T09:51:48.602Z,24.60
2023-05-22T09:54:31.400Z,24.80
2023-05-22T09:57:12.652Z,25.05
2023-05-22T09:59:59.775Z,25.28
2023-05-22T10:02:35.703Z,25.35
2023-05-22T10:05:29.644Z,25.26
2023-05-22T10:08:19.169Z,25.07
2023-05-22T10:10:58.274Z,24.88
2023-05-22T10:13:37.032Z,24.57
2023-05-22T10:16:17.211Z,24.39
2023-05-22T10:18:55.751Z,24.36
2023-05-22T10:21:34.504Z,24.38
2023-05-22T10:24:11.261Z,24.35
2023-05-22T10:26:51.079Z,24.56
2023-05-22T10:30:00.108Z,24.86
2023-05-22T10:33:04.871Z,24.93
2023-05-22T10:36:00.166Z,24.77
2023-05-22T10:39:00.736Z,24.79
2023-05-22T10:41:39.584Z,24.51
2023-05-22T10:44:19.580Z,24.51
2023-05-22T10:46:51.048Z,24.70
2023-05-22T10:49:27.264Z,24.81
2023-05-22T10:51:57.770Z,24.76
2023-05-22T10:54:49.577Z,24.40
2023-05-22T10:57:28.755Z,24.18
2023-05-22T11:00:20.514Z,24.15
2023-05-22T11:03:17.943Z,24.52
2023-05-22T11:05:57.948Z,24.76
2023-05-22T11:08:39.888Z,24.92
2023-05-22T11:11:17.918Z,24.97
2023-05-22T11:14:07.031Z,24.87
2023-05-22T11:16:43.138Z,25.28
2023-05-22T11:19:26.586Z,25.53
2023-05-22T11:22:02.538Z,25.25
2023-05-22T11:24:38.560Z,25.50
2023-05-22T11:27:16.992Z,25.78
2023-05-22T11:29:56.026Z,25.86
2023-05-22T11:32:34.204Z,25.93
2023-05-22T11:35:12.157Z,25.95
2023-05-22T11:37:51.333Z,25.90
2023-05-22T11:40:31.864Z,26.07
2023-05-22T11:43:10.713Z,25.92
2023-05-22T11:45:48.753Z,25.55
2023-05-22T11:48:28.019Z,25.28
2023-05-22T11:51:06.731Z,25.33
2023-05-22T11:53:45.127Z,25.38
2023-05-22T11:56:24.258Z,25.45
2023-05-22T11:58:57.486Z,25.35
2023-05-22T12:01:36.750Z,25.57
2023-05-22T12:04:14.819Z,25.60
2023-05-22T12:06:54.874Z,25.57
2023-05-22T12:09:36.458Z,25.45
2023-05-22T12:12:17.576Z,25.44
2023-05-22T12:14:55.389Z,25.30
2023-05-22T12:17:33.638Z,25.27
2023-05-22T12:20:16.408Z,25.21
2023-05-22T12:22:49.861Z,24.90
2023-05-22T12:25:21.156Z,24.93
2023-05-22T12:27:59.906Z,25.11
2023-05-22T12:30:42.284Z,25.13
2023-05-22T12:33:21.211Z,25.12
2023-05-22T12:36:00.060Z,25.07
2023-05-22T12:38:39.885Z,24.82
2023-05-22T12:41:18.552Z,24.65
2023-05-22T12:43:57.234Z,24.60
2023-05-22T12:46:39.326Z,24.63
2023-05-22T12:49:18.216Z,24.65
2023-05-22T12:51:56.694Z,24.70
2023-05-22T12:54:35.813Z,24.84
2023-05-22T12:57:17.417Z,25.00
2023-05-22T12:59:55.740Z,25.10
2023-05-22T13:02:34.617Z,25.17
2023-05-22T13:05:14.222Z,24.96
2023-05-22T13:07:53.679Z,24.58
2023-05-22T13:10:32.302Z,24.67
2023-05-22T13:13:04.062Z,24.71
2023-05-22T13:15:42.149Z,24.79
2023-05-22T13:18:20.824Z,24.85
2023-05-22T13:20:52.605Z,24.95
2023-05-22T13:23:23.655Z,25.06
2023-05-22T13:26:02.730Z,25.36
2023-05-22T13:28:41.206Z,25.39
2023-05-22T13:31:19.792Z,25.39
2023-05-22T13:33:51.687Z,25.53
2023-05-22T13:36:30.603Z,25.60
2023-05-22T13:39:09.648Z,25.41
2023-05-22T13:41:43.292Z,25.35
2023-05-22T13:44:21.770Z,25.49
2023-05-22T13:46:56.056Z,25.50
2023-05-22T13:49:33.042Z,25.60
2023-05-22T13:52:03.780Z,25.72
2023-05-22T13:54:41.931Z,25.96
2023-05-22T13:57:21.001Z,26.00
2023-05-22T13:59:59.347Z,25.74
2023-05-22T14:02:37.950Z,25.51
2023-05-22T14:05:09.681Z,25.35
2023-05-22T14:07:47.818Z,25.33
2023-05-22T14:10:26.303Z,25.24
2023-05-22T14:13:04.395Z,25.06
2023-05-22T14:15:42.950Z,25.00
2023-05-22T14:18:21.579Z,24.80
2023-05-22T14:20:59.547Z,24.53
2023-05-22T14:23:37.999Z,24.51
2023-05-22T14:26:16.780Z,24.48
2023-05-22T14:28:47.846Z,24.58
2023-05-22T14:31:24.321Z,24.62
2023-05-22T14:34:02.948Z,24.59
2023-05-22T14:36:40.683Z,24.70
2023-05-22T14:39:19.173Z,24.70
2023-05-22T14:41:58.698Z,24.78
2023-05-22T14:44:36.981Z,24.71
2023-05-22T14:47:16.019Z,24.72
2023-05-22T14:49:57.684Z,24.82
2023-05-22T14:52:41.721Z,24.86
2023-05-22T14:55:21.494Z,24.93
2023-05-22T14:58:00.339Z,24.81
2023-05-22T15:00:37.555Z,24.83
2023-05-22T15:03:17.199Z,24.84
2023-05-22T15:05:56.673Z,24.59
2023-05-22T15:08:37.138Z,24.42
2023-05-22T15:11:15.682Z,24.17
2023-05-22T15:13:56.842Z,24.14
2023-05-22T15:16:35.084Z,24.10
2023-05-22T15:19:05.551Z,24.16
2023-05-22T15:21:37.606Z,24.19
2023-05-22T15:24:10.274Z,24.26
2023-05-22T15:26:45.760Z,24.35
2023-05-22T15:29:23.238Z,24.43
2023-05-22T15:32:00.986Z,24.45
2023-05-22T15:34:32.239Z,24.30
2023-05-22T15:37:14.035Z,24.23
2023-05-22T15:39:51.900Z,24.26
2023-05-22T15:42:30.144Z,24.33
2023-05-22T15:45:08.510Z,24.28
2023-05-22T15:47:47.400Z,24.06
2023-05-22T15:50:25.744Z,23.92
2023-05-22T15:53:04.541Z,24.08
2023-05-22T15:55:43.134Z,24.28
2023-05-22T15:58:22.562Z,24.33
2023-05-22T16:01:02.253Z,24.10
2023-05-22T16:03:41.543Z,24.06
2023-05-22T16:06:13.109Z,23.96
2023-05-22T16:08:46.881Z,23.81
2023-05-22T16:11:25.573Z,23.99
2023-05-22T16:14:03.968Z,23.88
2023-05-22T16:16:42.305Z,23.88
2023-05-22T16:19:20.485Z,23.97
2023-05-22T16:21:58.252Z,24.05
2023-05-22T16:24:28.795Z,23.96
2023-05-22T16:27:07.838Z,23.87
2023-05-22T16:29:45.246Z,23.82
2023-05-22T16:32:23.366Z,23.77
2023-05-22T16:35:02.148Z,23.79
2023-05-22T16:37:41.470Z,23.65
2023-05-22T16:40:20.926Z,23.62
2023-05-22T16:42:59.842Z,23.63
2023-05-22T16:45:32.852Z,23.62
2023-05-22T16:48:09.366Z,23.57
2023-05-22T16:50:48.429Z,23.55
2023-05-22T16:53:27.315Z,23.46
2023-05-22T16:56:05.119Z,23.44
2023-05-22T16:58:43.071Z,23.46
2023-05-22T17:01:22.525Z,23.42
2023-05-22T17:03:57.720Z,23.31
2023-05-22T17:06:32.963Z,23.24
2023-05-22T17:09:11.248Z,23.12
2023-05-22T17:11:45.280Z,22.97
2023-05-22T17:14:22.262Z,22.92
2023-05-22T17:16:59.453Z,22.83
2023-05-22T17:19:31.017Z,22.87
2023-05-22T17:22:09.178Z,22.85
2023-05-22T17:24:46.986Z,22.79
2023-05-22T17:27:35.483Z,22.70
2023-05-22T17:30:12.286Z,22.66
2023-05-22T17:32:50.480Z,22.59
2023-05-22T17:35:29.290Z,22.56
2023-05-22T17:38:08.893Z,22.49
2023-05-22T17:40:47.464Z,22.43
2023-05-22T17:43:21.155Z,22.33
2023-05-22T17:45:58.814Z,22.33
2023-05-22T17:48:36.983Z,22.27
2023-05-22T17:51:15.746Z,22.24
2023-05-22T17:53:56.498Z,22.17
2023-05-22T17:56:32.206Z,22.07
2023-05-22T17:59:11.296Z,21.96
2023-05-22T18:01:49.653Z,21.90
2023-05-22T18:04:27.048Z,21.83
2023-05-22T18:07:04.321Z,21.76
2023-05-22T18:09:41.417Z,21.70
2023-05-22T18:12:30.152Z,21.59
2023-05-22T18:15:13.688Z,21.57
2023-05-22T18:17:50.975Z,21.50
2023-05-22T18:20:24.749Z,21.42
2023-05-22T18:23:03.226Z,21.37
2023-05-22T18:25:33.400Z,21.31
2023-05-22T18:28:11.036Z,21.24
2023-05-22T18:30:49.889Z,21.17
2023-05-22T18:33:27.900Z,21.08
2023-05-22T18:36:08.521Z,20.99
2023-05-22T18:38:40.050Z,20.81
2023-05-22T18:41:14.798Z,20.85
2023-05-22T18:43:52.986Z,20.74
2023-05-22T18:46:31.596Z,20.70
2023-05-22T18:49:11.236Z,20.62
2023-05-22T18:51:48.798Z,20.54
2023-05-22T18:54:27.278Z,20.45
2023-05-22T18:57:04.994Z,20.38
2023-05-22T18:59:38.046Z,20.29
2023-05-22T19:02:09.285Z,20.22
2023-05-22T19:04:49.372Z,20.13
2023-05-22T19:07:23.549Z,20.04
2023-05-22T19:10:03.858Z,19.95
2023-05-22T19:12:43.681Z,19.86
2023-05-22T19:15:23.538Z,19.79
2023-05-22T19:18:04.075Z,19.69
2023-05-22T19:20:42.303Z,19.61
2023-05-22T19:23:20.433Z,19.52
2023-05-22T19:25:58.820Z,19.43
2023-05-22T19:28:38.210Z,19.35
2023-05-22T19:31:17.021Z,19.28
2023-05-22T19:33:49.750Z,19.19
2023-05-22T19:36:27.781Z,19.10
2023-05-22T19:39:06.737Z,19.02
2023-05-22T19:41:45.505Z,18.96
2023-05-22T19:44:17.744Z,18.89
2023-05-22T19:46:53.860Z,18.82
2023-05-22T19:49:34.774Z,18.75
2023-05-22T19:52:13.947Z,18.66
2023-05-22T19:54:53.346Z,18.58
2023-05-22T19:57:35.434Z,18.52
2023-05-22T20:00:12.495Z,18.44
2023-05-22T20:02:52.245Z,18.31
2023-05-22T20:05:30.350Z,18.29
2023-05-22T20:08:13.445Z,18.22
2023-05-22T20:10:52.582Z,18.15
2023-05-22T20:13:30.815Z,18.09
2023-05-22T20:16:13.261Z,18.02
2023-05-22T20:18:51.359Z,17.96
2023-05-22T20:21:31.213Z,17.88
2023-05-22T20:24:17.764Z,17.81
2023-05-22T20:26:54.934Z,17.76
2023-05-22T20:29:33.744Z,17.70
2023-05-22T20:32:13.149Z,17.64
2023-05-22T20:34:52.732Z,17.57
2023-05-22T20:37:29.857Z,17.52
2023-05-22T20:40:09.634Z,17.44
2023-05-22T20:42:47.896Z,17.37
2023-05-22T20:45:27.375Z,17.29
2023-05-22T20:48:06.648Z,17.21
2023-05-22T20:50:47.965Z,17.14
2023-05-22T20:53:26.847Z,17.08
2023-05-22T20:56:06.315Z,17.03
2023-05-22T20:58:44.928Z,16.95
2023-05-22T21:01:23.767Z,16.88
2023-05-22T21:04:02.444Z,16.82
2023-05-22T21:06:40.993Z,16.74
2023-05-22T21:09:19.900Z,16.69
2023-05-22T21:11:50.838Z,16.63
2023-05-22T21:14:29.331Z,16.58
2023-05-22T21:17:01.505Z,16.52
2023-05-22T21:19:36.500Z,16.47
2023-05-22T21:22:15.396Z,16.41
2023-05-22T21:24:53.923Z,16.34
2023-05-22T21:27:32.192Z,16.27
2023-05-22T21:30:11.082Z,16.21
2023-05-22T21:32:49.110Z,16.16
2023-05-22T21:35:30.117Z,16.09
2023-05-22T21:38:11.471Z,16.03
2023-05-22T21:40:50.183Z,15.98
2023-05-22T21:43:31.717Z,15.92
2023-05-22T21:46:11.556Z,15.86
2023-05-22T21:48:46.902Z,15.84
2023-05-22T21:51:25.521Z,15.80
2023-05-22T21:53:55.890Z,15.75
2023-05-22T21:56:34.333Z,15.72
2023-05-22T21:59:14.316Z,15.68
2023-05-22T22:01:53.246Z,15.63
2023-05-22T22:04:31.926Z,15.58
2023-05-22T22:07:03.059Z,15.53
2023-05-22T22:09:38.367Z,15.44
2023-05-22T22:12:17.224Z,15.37
2023-05-22T22:14:55.861Z,15.34
2023-05-22T22:17:35.069Z,15.29
2023-05-22T22:20:14.766Z,15.26
2023-05-22T22:22:53.808Z,15.23
2023-05-22T22:25:32.438Z,15.19
2023-05-22T22:28:09.370Z,15.17
2023-05-22T22:30:51.365Z,15.14
2023-05-22T22:33:28.281Z,15.12
2023-05-22T22:36:07.318Z,15.09
2023-05-22T22:38:46.382Z,15.06
2023-05-22T22:41:16.480Z,15.03
2023-05-22T22:43:54.783Z,14.99
2023-05-22T22:46:32.844Z,14.92
2023-05-22T22:49:13.495Z,14.89
2023-05-22T22:51:51.666Z,14.85
2023-05-22T22:54:30.693Z,14.83
2023-05-22T22:57:11.179Z,14.78
2023-05-22T22:59:49.742Z,14.74
2023-05-22T23:02:27.644Z,14.71
2023-05-22T23:05:08.412Z,14.68
2023-05-22T23:07:46.828Z,14.64
2023-05-22T23:10:20.815Z,14.62
2023-05-22T23:12:50.775Z,14.63
2023-05-22T23:15:29.770Z,14.64
2023-05-22T23:21:22.929Z,14.61
2023-05-22T23:23:53.610Z,14.59
2023-05-22T23:26:35.855Z,14.56
2023-05-22T23:29:13.867Z,14.53
2023-05-22T23:31:53.283Z,14.49
2023-05-22T23:34:31.627Z,14.43
2023-05-22T23:37:11.910Z,14.40
2023-05-22T23:39:51.160Z,14.36
2023-05-22T23:42:30.228Z,14.32
2023-05-22T23:45:10.202Z,14.22
2023-05-22T23:47:48.243Z,14.18
2023-05-22T23:50:27.019Z,14.12
2023-05-22T23:53:05.309Z,14.07
2023-05-22T23:55:44.591Z,14.03
2023-05-22T23:58:18.529Z,13.97
